»·PEaware :: N822GT KSNA-KOXR

N822GT :: KSNA-KOXR

FLIGHT INFORMATION

Flight Status: Arrived
Operator: Privately registered:
United States
More flights under this callsign
Pilot: James B. (31231)
Aircraft: PIPER PA-28R-201 ARROW
(P28R)
More flights by this aircraft type
Origin: KSNA John Wayne-Orange Co
United States
Destination: KOXR Oxnard
United States
More flights between these airports :: More routes between these airports
Route: SLI V23 POPPR SMO125 SMO VNY
File this flight plan on PilotEdge
Remarks:
Altitude:
(Current/Filed)
4,000ft
Speed:
(Current/Filed)
130kts
Departed: 25-Jan-21 07:43 PM
Arrived: 25-Jan-21 08:27 PM
Distance/Time
Traveled:
74nm/0:44
Distance/Time
To Go:
Arrived

Flight Plot

Page will automatically refresh every two minutes.


Map Options




Map Legend


Flown Route
Filed Route
Departure Airport
Arrival Airport
Navaid (VOR, NDB)
Fix

Horizontal Profiles

Position Reports

Time Latitude Longitude Heading Altitude Ground
Speed
25-Jan-21 19:20 33.675431 -117.871338 40 58ft 0kts
25-Jan-21 19:21 33.675431 -117.871338 40 58ft 0kts
25-Jan-21 19:22 33.675431 -117.871338 40 58ft 0kts
25-Jan-21 19:23 33.675431 -117.871338 40 58ft 0kts
25-Jan-21 19:24 33.675431 -117.871338 40 58ft 0kts
25-Jan-21 19:25 33.675431 -117.871338 40 58ft 0kts
25-Jan-21 19:26 33.675431 -117.871338 40 58ft 0kts
25-Jan-21 19:27 33.675431 -117.871338 40 58ft 0kts
25-Jan-21 19:28 33.675431 -117.871338 40 58ft 0kts
25-Jan-21 19:29 33.675431 -117.871338 40 58ft 0kts
25-Jan-21 19:30 33.675431 -117.871338 40 58ft 0kts
25-Jan-21 19:31 33.675431 -117.871338 40 58ft 0kts
25-Jan-21 19:32 33.675431 -117.871338 40 58ft 0kts
25-Jan-21 19:33 33.675431 -117.871338 40 58ft 0kts
25-Jan-21 19:34 33.675398 -117.871137 130 58ft 4kts
25-Jan-21 19:35 33.677277 -117.869318 27 58ft 16kts
25-Jan-21 19:36 33.680533 -117.867442 28 58ft 15kts
25-Jan-21 19:37 33.681208 -117.866420 113 58ft 0kts
25-Jan-21 19:38 33.681208 -117.866420 113 58ft 0kts
25-Jan-21 19:39 33.681208 -117.866420 113 58ft 0kts
25-Jan-21 19:40 33.681208 -117.866420 113 58ft 0kts
25-Jan-21 19:41 33.681108 -117.866187 118 58ft 12kts
25-Jan-21 19:42 33.666104 -117.877718 234 660ft 95kts
25-Jan-21 19:43 33.649336 -117.906318 236 1594ft 112kts
25-Jan-21 19:44 33.628240 -117.936888 222 2094ft 128kts
25-Jan-21 19:45 33.600377 -117.975576 225 2124ft 140kts
25-Jan-21 19:46 33.572528 -118.020973 286 2025ft 135kts
25-Jan-21 19:47 33.600312 -118.052505 324 2008ft 129kts
25-Jan-21 19:48 33.628768 -118.078937 322 2309ft 126kts
25-Jan-21 19:49 33.655548 -118.104814 322 2602ft 125kts
25-Jan-21 19:50 33.682330 -118.130926 322 2898ft 125kts
25-Jan-21 19:51 33.709236 -118.157227 322 3196ft 124kts
25-Jan-21 19:52 33.735917 -118.183346 322 3494ft 123kts
25-Jan-21 19:53 33.762272 -118.209180 322 3823ft 120kts
25-Jan-21 19:54 33.787166 -118.233609 323 4261ft 115kts
25-Jan-21 19:55 33.812781 -118.258725 323 4348ft 127kts
25-Jan-21 19:56 33.839776 -118.285226 323 4343ft 129kts
25-Jan-21 19:57 33.866765 -118.312231 322 4336ft 129kts
25-Jan-21 19:58 33.893521 -118.339072 322 4329ft 129kts
25-Jan-21 19:59 33.920344 -118.366008 322 4322ft 129kts
25-Jan-21 20:00 33.943178 -118.388958 322 4315ft 129kts
25-Jan-21 20:02 33.966655 -118.412564 322 4309ft 132kts
25-Jan-21 20:03 33.992090 -118.438161 322 4302ft 133kts
25-Jan-21 20:04 34.020118 -118.457061 350 4298ft 131kts
25-Jan-21 20:05 34.052837 -118.463197 352 4293ft 132kts
25-Jan-21 20:06 34.085824 -118.468804 352 4283ft 132kts
25-Jan-21 20:07 34.118049 -118.474123 352 4281ft 132kts
25-Jan-21 20:08 34.131097 -118.509634 282 4268ft 138kts
25-Jan-21 20:09 34.136369 -118.553724 282 4272ft 138kts
25-Jan-21 20:10 34.141804 -118.599147 282 4277ft 138kts
25-Jan-21 20:11 34.147117 -118.643159 282 4146ft 144kts
25-Jan-21 20:12 34.152478 -118.686320 281 4011ft 140kts
25-Jan-21 20:13 34.156116 -118.731630 278 3630ft 147kts
25-Jan-21 20:14 34.162823 -118.771726 291 3631ft 138kts
25-Jan-21 20:15 34.173120 -118.807851 291 3635ft 137kts
25-Jan-21 20:15 34.181570 -118.837633 291 3634ft 125kts
25-Jan-21 20:17 34.193335 -118.880056 291 3637ft 118kts
25-Jan-21 20:17 34.198254 -118.908128 274 3635ft 113kts
25-Jan-21 20:18 34.198642 -118.947393 274 3636ft 104kts
25-Jan-21 20:19 34.198957 -118.982097 275 3536ft 90kts
25-Jan-21 20:20 34.199327 -119.017921 274 3030ft 99kts
25-Jan-21 20:21 34.199663 -119.056790 273 2399ft 102kts
25-Jan-21 20:22 34.199983 -119.096085 272 1753ft 102kts
25-Jan-21 20:23 34.200167 -119.134266 269 1132ft 101kts
25-Jan-21 20:24 34.200367 -119.167787 274 610ft 100kts
25-Jan-21 20:25 34.200720 -119.198524 271 88ft 84kts
25-Jan-21 20:26 34.200117 -119.211641 233 32ft 2kts
25-Jan-21 20:27 34.199956 -119.211709 161 31ft 5kts
25-Jan-21 20:28 34.199825 -119.209518 90 35ft 9kts
25-Jan-21 20:29 34.199421 -119.206206 177 36ft 12kts

Navigation Log

Ident Type
Flight plan parsing failed, navigation log unavailable